createdAt,value
2022-10-13T04:04:30.683Z,101180.81
2022-10-13T04:07:33.212Z,101183.03
2022-10-13T04:10:39.908Z,101184.34
2022-10-13T04:13:42.967Z,101180.97
2022-10-13T04:16:45.106Z,101177.22
2022-10-13T04:19:47.493Z,101175.94
2022-10-13T04:22:49.701Z,101178.22
2022-10-13T04:25:52.167Z,101177.22
2022-10-13T04:28:55.345Z,101181.16
2022-10-13T04:31:59.613Z,101175.56
2022-10-13T04:35:01.636Z,101164.59
2022-10-13T04:38:03.962Z,101179.34
2022-10-13T04:41:07.231Z,101178.88
2022-10-13T04:44:09.587Z,101173.44
2022-10-13T04:47:11.642Z,101175.59
2022-10-13T04:50:13.954Z,101182.63
2022-10-13T04:53:19.151Z,101174.25
2022-10-13T04:56:21.807Z,101178.50
2022-10-13T04:59:23.874Z,101179.47
2022-10-13T05:02:26.225Z,101187.59
2022-10-13T05:05:28.699Z,101183.97
2022-10-13T05:08:33.045Z,101179.91
2022-10-13T05:11:35.101Z,101176.31
2022-10-13T05:14:37.426Z,101178.69
2022-10-13T05:17:42.728Z,101178.94
2022-10-13T05:20:45.199Z,101179.84
2022-10-13T05:23:47.899Z,101184.28
2022-10-13T05:26:50.181Z,101177.19
2022-10-13T05:29:52.225Z,101181.84
2022-10-13T05:32:54.533Z,101176.34
2022-10-13T05:36:06.743Z,101182.72
2022-10-13T05:39:11.249Z,101188.03
2022-10-13T05:42:13.337Z,101178.75
2022-10-13T05:45:16.950Z,101186.66
2022-10-13T05:48:18.969Z,101189.94
2022-10-13T05:51:27.462Z,101186.91
2022-10-13T05:54:42.184Z,101188.34
2022-10-13T05:57:50.712Z,101189.13
2022-10-13T06:00:55.222Z,101194.28
2022-10-13T06:04:03.351Z,101193.53
2022-10-13T06:07:05.991Z,101197.69
2022-10-13T06:10:08.985Z,101205.59
2022-10-13T06:13:11.535Z,101208.41
2022-10-13T06:16:13.821Z,101201.75
2022-10-13T06:19:15.848Z,101206.28
2022-10-13T06:22:18.460Z,101205.59
2022-10-13T06:25:21.025Z,101196.37
2022-10-13T06:28:23.352Z,101203.31
2022-10-13T06:31:25.469Z,101210.09
2022-10-13T06:34:27.764Z,101204.19
2022-10-13T06:37:29.891Z,101207.97
2022-10-13T06:40:34.410Z,101210.97
2022-10-13T06:43:40.500Z,101211.72
2022-10-13T06:46:44.962Z,101206.31
2022-10-13T06:49:47.213Z,101200.25
2022-10-13T06:52:49.553Z,101210.91
2022-10-13T06:55:52.574Z,101205.22
2022-10-13T06:58:55.082Z,101203.13
2022-10-13T07:01:57.394Z,101204.28
2022-10-13T07:05:00.209Z,101204.50
2022-10-13T07:08:02.360Z,101204.72
2022-10-13T07:11:15.361Z,101201.84
2022-10-13T07:14:17.878Z,101196.13
2022-10-13T07:17:20.581Z,101196.41
2022-10-13T07:20:24.256Z,101194.16
2022-10-13T07:23:27.378Z,101195.25
2022-10-13T07:26:29.628Z,101199.06
2022-10-13T07:29:31.947Z,101198.59
2022-10-13T07:32:34.018Z,101192.53
2022-10-13T07:35:40.336Z,101189.50
2022-10-13T07:38:42.808Z,101193.81
2022-10-13T07:41:50.120Z,101200.16
2022-10-13T07:44:53.063Z,101196.09
2022-10-13T07:47:56.594Z,101192.78
2022-10-13T07:50:58.955Z,101188.63
2022-10-13T07:54:01.310Z,101183.63
2022-10-13T07:57:03.616Z,101176.09
2022-10-13T08:00:07.041Z,101183.22
2022-10-13T08:03:14.261Z,101188.59
2022-10-13T08:06:17.302Z,101182.59
2022-10-13T08:09:19.381Z,101176.50
2022-10-13T08:12:22.003Z,101183.84
2022-10-13T08:15:24.757Z,101179.41
2022-10-13T08:18:27.813Z,101173.59
2022-10-13T08:24:52.464Z,101163.13
2022-10-13T08:27:58.185Z,101163.13
2022-10-13T08:31:02.746Z,101159.56
2022-10-13T08:34:05.019Z,101158.87
2022-10-13T08:37:13.738Z,101158.87
2022-10-13T08:40:20.734Z,101152.75
2022-10-13T08:43:24.254Z,101150.12
2022-10-13T08:46:30.666Z,101155.72
2022-10-13T08:49:33.043Z,101150.53
2022-10-13T08:52:52.602Z,101151.53
2022-10-13T08:56:15.147Z,101138.44
2022-10-13T08:59:21.681Z,101139.38
2022-10-13T09:02:29.986Z,101137.56
2022-10-13T09:05:41.223Z,101134.97
2022-10-13T09:09:18.254Z,101136.81
2022-10-13T09:12:24.117Z,101131.69
2022-10-13T09:15:26.477Z,101136.22
2022-10-13T09:18:31.798Z,101138.00
2022-10-13T09:21:34.129Z,101145.91
2022-10-13T09:28:29.002Z,101129.41
2022-10-13T09:31:33.060Z,101115.37
2022-10-13T09:34:35.398Z,101120.69
2022-10-13T09:37:40.923Z,101122.53
2022-10-13T09:40:56.586Z,101122.63
2022-10-13T09:44:03.258Z,101119.94
2022-10-13T09:47:05.714Z,101118.22
2022-10-13T09:50:26.950Z,101117.34
2022-10-13T09:53:40.357Z,101113.88
2022-10-13T09:56:49.158Z,101116.50
2022-10-13T09:59:51.420Z,101106.81
2022-10-13T10:03:12.286Z,101104.22
2022-10-13T10:06:16.697Z,101104.25
2022-10-13T10:09:38.694Z,101104.28
2022-10-13T10:12:43.018Z,101099.91
2022-10-13T10:15:53.697Z,101099.03
2022-10-13T10:19:05.822Z,101096.41
2022-10-13T10:22:10.887Z,101087.59
2022-10-13T10:25:26.227Z,101093.78
2022-10-13T10:28:53.323Z,101084.06
2022-10-13T10:32:02.990Z,101079.72
2022-10-13T10:35:31.126Z,101081.50
2022-10-13T10:39:00.188Z,101075.31
2022-10-13T10:42:39.136Z,101070.06
2022-10-13T10:45:43.224Z,101066.53
2022-10-13T10:48:47.034Z,101052.44
2022-10-13T10:51:50.106Z,101055.97
2022-10-13T10:55:17.490Z,101046.28
2022-10-13T10:58:35.071Z,101044.50
2022-10-13T11:02:01.078Z,101045.38
2022-10-13T11:05:06.310Z,101037.44
2022-10-13T11:08:26.847Z,101032.19
2022-10-13T11:11:33.562Z,101027.72
2022-10-13T11:14:39.494Z,101024.16
2022-10-13T11:17:42.486Z,101017.13
2022-10-13T11:20:44.423Z,101018.91
2022-10-13T11:23:49.661Z,101010.09
2022-10-13T11:26:51.918Z,101005.66
2022-10-13T11:29:58.078Z,101005.59
2022-10-13T11:33:09.022Z,101005.56
2022-10-13T11:36:43.315Z,101001.16
2022-10-13T11:40:01.009Z,100993.22
2022-10-13T11:43:22.183Z,100992.34
2022-10-13T11:46:30.420Z,100986.19
2022-10-13T11:49:50.112Z,100980.03
2022-10-13T11:53:00.982Z,100976.50
2022-10-13T11:56:03.402Z,100976.44
2022-10-13T11:59:05.493Z,100965.87
2022-10-13T12:02:12.331Z,100964.06
2022-10-13T12:05:41.078Z,100960.44
2022-10-13T12:08:47.266Z,100959.72
2022-10-13T12:11:57.347Z,100956.19
2022-10-13T12:15:02.637Z,100951.75
2022-10-13T12:18:24.218Z,100947.31
2022-10-13T12:21:27.281Z,100947.31
2022-10-13T12:24:30.463Z,100941.97
2022-10-13T12:27:55.598Z,100937.59
2022-10-13T12:31:05.468Z,100942.91
2022-10-13T12:34:20.078Z,100932.31
2022-10-13T12:38:08.502Z,100932.31
2022-10-13T12:41:11.842Z,100932.19
2022-10-13T12:44:23.894Z,100925.09
2022-10-13T12:47:45.525Z,100921.53
2022-10-13T12:50:48.715Z,100917.19
2022-10-13T12:53:51.351Z,100915.44
2022-10-13T12:56:57.414Z,100916.25
2022-10-13T12:59:59.750Z,100915.25
2022-10-13T13:03:05.104Z,100915.22
2022-10-13T13:06:22.968Z,100910.81
2022-10-13T13:09:42.294Z,100913.53
2022-10-13T13:12:51.239Z,100919.75
2022-10-13T13:15:58.254Z,100911.78
2022-10-13T13:19:22.588Z,100902.94
2022-10-13T13:22:25.319Z,100900.28
2022-10-13T13:25:27.897Z,100899.44
2022-10-13T13:28:35.798Z,100889.75
2022-10-13T13:31:43.393Z,100892.38
2022-10-13T13:34:49.730Z,100887.09
2022-10-13T13:37:54.757Z,100892.38
2022-10-13T13:41:03.083Z,100881.75
2022-10-13T13:44:06.923Z,100884.41
2022-10-13T13:47:29.162Z,100882.75
2022-10-13T13:50:34.199Z,100882.59
2022-10-13T13:53:36.760Z,100869.44
2022-10-13T13:56:39.226Z,100879.22
2022-10-13T13:59:41.821Z,100877.56
2022-10-13T14:02:45.051Z,100875.72
2022-10-13T14:05:47.381Z,100878.44
2022-10-13T14:08:50.713Z,100871.28
2022-10-13T14:11:53.461Z,100877.53
2022-10-13T14:14:57.206Z,100877.53
2022-10-13T14:18:01.056Z,100877.53
2022-10-13T14:21:07.405Z,100881.19
2022-10-13T14:24:10.713Z,100874.13
2022-10-13T14:27:12.755Z,100875.94
2022-10-13T14:30:15.158Z,100875.06
2022-10-13T14:33:19.534Z,100872.44
2022-10-13T14:36:22.000Z,100873.38
2022-10-13T14:39:24.054Z,100868.09
2022-10-13T14:42:26.350Z,100866.34
2022-10-13T14:45:28.383Z,100868.16
2022-10-13T14:48:31.870Z,100869.97
2022-10-13T14:51:33.933Z,100869.09
2022-10-13T14:54:38.149Z,100864.72
2022-10-13T14:57:44.436Z,100862.09
2022-10-13T15:00:48.317Z,100864.81
2022-10-13T15:03:50.736Z,100859.53
2022-10-13T15:06:53.129Z,100858.69
2022-10-13T15:10:05.068Z,100856.06
2022-10-13T15:13:08.342Z,100864.03
2022-10-13T15:16:17.883Z,100858.75
2022-10-13T15:19:20.208Z,100861.44
2022-10-13T15:22:22.596Z,100857.03
2022-10-13T15:25:25.246Z,100859.69
